createdAt,value
2022-12-31T00:00:50.518Z,28.95
2022-12-31T00:01:51.904Z,29.15
2022-12-31T00:02:52.881Z,33.25
2022-12-31T00:03:54.561Z,33.45
2022-12-31T00:04:55.433Z,32.53
2022-12-31T00:05:56.745Z,33.33
2022-12-31T00:06:57.630Z,34.70
2022-12-31T00:07:59.111Z,28.97
2022-12-31T00:09:00.877Z,31.35
2022-12-31T00:10:02.139Z,32.17
2022-12-31T00:11:04.010Z,30.98
2022-12-31T00:12:05.376Z,33.67
2022-12-31T00:13:06.455Z,32.70
2022-12-31T00:14:07.605Z,33.13
2022-12-31T00:15:08.822Z,28.67
2022-12-31T00:16:12.373Z,32.78
2022-12-31T00:17:13.531Z,32.65
2022-12-31T00:18:14.684Z,31.20
2022-12-31T00:19:15.560Z,33.05
2022-12-31T00:20:17.165Z,33.67
2022-12-31T00:21:18.517Z,27.45
2022-12-31T00:22:19.633Z,33.42
2022-12-31T00:23:20.456Z,29.27
2022-12-31T00:24:21.614Z,31.58
2022-12-31T00:25:22.542Z,27.55
2022-12-31T00:26:25.365Z,30.88
2022-12-31T00:27:26.212Z,30.33
2022-12-31T00:28:27.335Z,30.40
2022-12-31T00:29:28.199Z,31.85
2022-12-31T00:30:29.426Z,32.13
2022-12-31T00:31:31.047Z,31.35
2022-12-31T00:32:32.194Z,33.05
2022-12-31T00:33:33.185Z,32.05
2022-12-31T00:34:34.331Z,32.85
2022-12-31T00:35:35.767Z,33.65
2022-12-31T00:36:37.446Z,33.30
2022-12-31T00:37:38.315Z,28.55
2022-12-31T00:38:41.435Z,32.72
2022-12-31T00:39:42.263Z,31.17
2022-12-31T00:40:43.419Z,32.37
2022-12-31T00:41:44.954Z,31.23
2022-12-31T00:42:46.142Z,33.28
2022-12-31T00:43:47.368Z,27.30
2022-12-31T00:44:48.517Z,32.17
2022-12-31T00:45:49.391Z,28.70
2022-12-31T00:46:50.540Z,29.02
2022-12-31T00:47:51.392Z,27.58
2022-12-31T00:48:52.887Z,31.23
2022-12-31T00:49:53.767Z,30.65
2022-12-31T00:50:55.459Z,30.17
2022-12-31T00:51:56.325Z,28.95
2022-12-31T00:52:57.455Z,30.23
2022-12-31T00:53:58.428Z,32.58
2022-12-31T00:54:59.572Z,36.47
2022-12-31T00:56:00.750Z,61.80
2022-12-31T00:57:02.562Z,95.68
2022-12-31T00:58:03.421Z,119.13
2022-12-31T00:59:04.663Z,131.63
2022-12-31T01:00:06.927Z,109.40
2022-12-31T01:01:08.863Z,97.18
2022-12-31T01:03:10.959Z,54.40
2022-12-31T01:04:13.228Z,52.25
2022-12-31T01:05:14.127Z,46.20
2022-12-31T01:06:15.893Z,42.03
2022-12-31T01:07:16.752Z,46.53
2022-12-31T01:08:17.952Z,50.95
2022-12-31T01:09:18.813Z,44.40
2022-12-31T01:10:39.939Z,36.00
2022-12-31T01:11:40.966Z,124.93
2022-12-31T01:12:42.768Z,145.90
2022-12-31T01:13:43.648Z,116.65
2022-12-31T01:14:44.776Z,109.63
2022-12-31T01:15:45.628Z,120.18
2022-12-31T01:16:47.468Z,141.82
2022-12-31T01:17:48.314Z,130.95
2022-12-31T01:18:49.865Z,102.30
2022-12-31T01:19:51.115Z,111.80
2022-12-31T01:20:51.979Z,64.82
2022-12-31T01:21:53.764Z,51.30
2022-12-31T01:22:54.610Z,48.28
2022-12-31T01:23:57.183Z,48.38
2022-12-31T01:24:58.310Z,40.83
2022-12-31T01:25:59.682Z,35.35
2022-12-31T01:27:00.857Z,45.00
2022-12-31T01:28:02.455Z,37.95
2022-12-31T01:29:04.123Z,38.25
2022-12-31T01:30:05.475Z,35.90
2022-12-31T01:31:07.418Z,39.63
2022-12-31T01:33:09.348Z,31.73
2022-12-31T01:34:10.488Z,35.53
2022-12-31T01:35:11.315Z,34.15
2022-12-31T01:36:14.013Z,25.33
2022-12-31T01:37:14.905Z,35.72
2022-12-31T01:38:16.045Z,37.60
2022-12-31T01:39:17.190Z,40.50
2022-12-31T01:40:18.027Z,39.72
2022-12-31T01:41:20.047Z,43.00
2022-12-31T01:43:22.613Z,24.27
2022-12-31T01:44:42.308Z,36.13
2022-12-31T01:45:43.686Z,30.77
2022-12-31T01:46:47.155Z,38.22
2022-12-31T01:47:50.643Z,36.13
2022-12-31T01:48:53.165Z,34.78
2022-12-31T01:49:57.468Z,31.45
2022-12-31T01:50:59.168Z,40.75
2022-12-31T01:52:02.326Z,39.00
2022-12-31T01:53:04.258Z,42.95
2022-12-31T01:55:08.748Z,30.02
2022-12-31T01:56:09.942Z,34.67
2022-12-31T01:57:11.619Z,42.50
2022-12-31T01:58:17.107Z,40.45
2022-12-31T01:59:20.173Z,33.92
2022-12-31T02:00:21.059Z,36.03
2022-12-31T02:01:24.966Z,38.30
2022-12-31T02:02:26.202Z,38.70
2022-12-31T02:03:28.409Z,34.78
2022-12-31T02:04:29.471Z,33.17
2022-12-31T02:05:33.569Z,36.78
2022-12-31T02:06:37.454Z,29.65
2022-12-31T02:07:38.824Z,36.88
2022-12-31T02:08:42.208Z,36.55
2022-12-31T02:09:44.038Z,31.00
2022-12-31T02:10:44.880Z,37.40
2022-12-31T02:11:46.056Z,37.33
2022-12-31T02:12:47.274Z,37.35
2022-12-31T02:13:51.536Z,32.58
2022-12-31T02:14:56.915Z,39.78
2022-12-31T02:16:00.777Z,32.80
2022-12-31T02:17:05.334Z,35.90
2022-12-31T02:18:09.696Z,36.80
2022-12-31T02:19:29.187Z,36.35
2022-12-31T02:20:41.009Z,28.58
2022-12-31T02:21:51.438Z,37.05
2022-12-31T02:23:11.051Z,34.08
2022-12-31T02:24:26.305Z,34.83
2022-12-31T02:25:36.277Z,30.77
2022-12-31T02:26:44.958Z,39.03
2022-12-31T02:27:51.553Z,34.55
2022-12-31T02:29:10.267Z,38.30
2022-12-31T02:30:14.367Z,28.92
2022-12-31T02:31:17.124Z,34.08
2022-12-31T02:32:21.070Z,29.85
2022-12-31T02:33:26.223Z,33.75
2022-12-31T02:34:27.567Z,30.95
2022-12-31T02:35:29.755Z,36.20
2022-12-31T02:36:33.377Z,32.40
2022-12-31T02:37:35.475Z,31.52
2022-12-31T02:38:38.275Z,29.27
2022-12-31T02:39:39.985Z,31.13
2022-12-31T02:40:40.870Z,33.85
2022-12-31T02:41:51.173Z,37.53
2022-12-31T02:42:55.627Z,34.28
2022-12-31T02:43:57.050Z,30.95
2022-12-31T02:44:57.914Z,37.70
2022-12-31T02:46:06.442Z,36.58
2022-12-31T02:47:13.127Z,35.60
2022-12-31T02:48:22.469Z,35.40
2022-12-31T02:49:28.797Z,37.00
2022-12-31T02:50:35.379Z,31.17
2022-12-31T02:51:37.715Z,30.73
2022-12-31T02:52:44.233Z,36.47
2022-12-31T02:53:53.876Z,33.00
2022-12-31T02:54:58.527Z,33.63
2022-12-31T02:56:03.163Z,32.47
2022-12-31T02:57:06.031Z,37.67
2022-12-31T02:58:12.822Z,30.98
2022-12-31T02:59:36.765Z,38.78
2022-12-31T03:00:59.059Z,26.80
2022-12-31T03:02:14.599Z,36.75
2022-12-31T03:03:16.187Z,33.13
2022-12-31T03:04:32.869Z,38.45
2022-12-31T03:05:36.740Z,29.02
2022-12-31T03:06:37.755Z,35.83
2022-12-31T03:07:39.701Z,37.87
2022-12-31T03:08:56.333Z,36.17
2022-12-31T03:09:57.699Z,29.20
2022-12-31T03:10:58.543Z,29.10
2022-12-31T03:12:18.300Z,28.53
2022-12-31T03:13:19.463Z,38.50
2022-12-31T03:14:20.377Z,33.97
2022-12-31T03:15:22.606Z,33.37
2022-12-31T03:16:23.489Z,35.17
2022-12-31T03:17:25.956Z,33.57
2022-12-31T03:18:55.520Z,36.38
2022-12-31T03:20:14.938Z,25.90
2022-12-31T03:21:34.324Z,27.95
2022-12-31T03:22:37.844Z,38.95
2022-12-31T03:23:40.478Z,50.40
2022-12-31T03:24:59.626Z,35.95
2022-12-31T03:26:01.047Z,46.20
2022-12-31T03:27:01.884Z,47.25
2022-12-31T03:28:04.127Z,38.50
2022-12-31T03:29:04.970Z,51.10
2022-12-31T03:30:06.844Z,50.17
2022-12-31T03:31:08.259Z,45.33
2022-12-31T03:32:09.156Z,35.88
2022-12-31T03:33:11.242Z,48.43
2022-12-31T03:34:12.106Z,37.55
2022-12-31T03:35:14.119Z,50.37
2022-12-31T03:37:15.951Z,33.67
2022-12-31T03:38:17.488Z,48.83
2022-12-31T03:39:18.355Z,50.47
2022-12-31T03:40:20.452Z,46.25
2022-12-31T03:41:21.368Z,52.90
2022-12-31T03:42:22.551Z,49.13
2022-12-31T03:43:23.720Z,42.67
2022-12-31T03:44:24.589Z,54.53
2022-12-31T03:45:25.744Z,44.17
2022-12-31T03:46:26.626Z,59.58
2022-12-31T03:47:28.079Z,39.97
2022-12-31T03:48:29.900Z,50.88
2022-12-31T03:49:30.728Z,64.88
2022-12-31T03:50:32.223Z,60.63
2022-12-31T03:51:33.083Z,62.10
2022-12-31T03:52:34.514Z,61.80
2022-12-31T03:53:35.649Z,58.60
2022-12-31T03:54:36.507Z,56.28
2022-12-31T03:55:37.676Z,46.00
2022-12-31T03:56:38.559Z,66.88
2022-12-31T03:57:39.761Z,46.53
2022-12-31T03:58:40.876Z,50.92
2022-12-31T03:59:41.720Z,57.50
2022-12-31T04:00:42.913Z,41.92
2022-12-31T04:01:43.938Z,50.55
2022-12-31T04:02:45.280Z,51.15
2022-12-31T04:03:46.814Z,41.45
2022-12-31T04:04:47.940Z,53.60
2022-12-31T04:05:51.783Z,35.92
2022-12-31T04:06:53.027Z,36.45
2022-12-31T04:07:55.036Z,46.03
2022-12-31T04:09:56.850Z,39.03
2022-12-31T04:10:58.036Z,50.70
2022-12-31T04:11:58.937Z,43.45
2022-12-31T04:13:01.697Z,48.60
2022-12-31T04:14:02.546Z,45.40
2022-12-31T04:15:04.615Z,35.70
2022-12-31T04:16:05.520Z,44.28
2022-12-31T04:17:06.731Z,44.67
2022-12-31T04:18:07.873Z,37.70
2022-12-31T04:19:09.529Z,45.13
2022-12-31T04:20:10.849Z,37.25
2022-12-31T04:21:11.796Z,44.75
2022-12-31T04:22:13.043Z,32.80
2022-12-31T04:23:13.883Z,45.30
2022-12-31T04:24:15.057Z,35.70
2022-12-31T04:25:16.197Z,49.63
2022-12-31T04:26:17.055Z,38.03
2022-12-31T04:27:18.248Z,49.55
2022-12-31T04:28:19.128Z,40.85
2022-12-31T04:29:20.317Z,48.33
2022-12-31T04:30:21.449Z,38.72
2022-12-31T04:31:22.444Z,44.97
2022-12-31T04:32:23.674Z,35.87
2022-12-31T04:33:24.526Z,43.03
2022-12-31T04:34:26.400Z,29.55
2022-12-31T04:35:27.296Z,41.30
2022-12-31T04:36:28.443Z,34.47
2022-12-31T04:37:29.356Z,40.67
2022-12-31T04:38:30.692Z,32.27
2022-12-31T04:39:31.572Z,35.97
2022-12-31T04:40:32.683Z,28.80
2022-12-31T04:41:33.631Z,34.17
2022-12-31T04:42:34.855Z,26.50
2022-12-31T04:43:35.704Z,37.72
2022-12-31T04:44:36.840Z,28.30
2022-12-31T04:45:37.720Z,32.45
2022-12-31T04:46:38.875Z,36.92
2022-12-31T04:47:39.762Z,31.00
2022-12-31T04:48:40.917Z,26.70
2022-12-31T04:49:42.762Z,29.88
2022-12-31T04:50:45.380Z,30.90
2022-12-31T04:51:46.518Z,32.97
2022-12-31T04:52:47.408Z,35.03
2022-12-31T04:53:48.688Z,35.40
2022-12-31T04:54:49.768Z,33.45
2022-12-31T04:55:51.965Z,33.05
2022-12-31T04:56:52.844Z,37.38
2022-12-31T04:57:54.012Z,26.50
2022-12-31T04:58:54.895Z,39.38
2022-12-31T04:59:56.053Z,32.83
2022-12-31T05:00:56.999Z,39.05
2022-12-31T05:01:58.427Z,26.85
2022-12-31T05:02:59.555Z,38.83
2022-12-31T05:04:00.720Z,32.55
2022-12-31T05:05:02.304Z,40.63
2022-12-31T05:06:04.445Z,33.42
2022-12-31T05:07:05.617Z,39.50
2022-12-31T05:08:06.514Z,29.65
2022-12-31T05:09:07.643Z,42.77
2022-12-31T05:10:08.655Z,32.17
2022-12-31T05:11:09.858Z,33.17
2022-12-31T05:12:10.687Z,40.70
2022-12-31T05:13:12.237Z,34.47
2022-12-31T05:14:13.354Z,34.20
2022-12-31T05:15:14.305Z,35.13
2022-12-31T05:16:15.856Z,36.80
2022-12-31T05:17:16.729Z,37.70
2022-12-31T05:18:18.021Z,41.33
2022-12-31T05:19:19.804Z,31.27
2022-12-31T05:20:21.322Z,38.55
2022-12-31T05:21:22.444Z,35.42
2022-12-31T05:22:29.086Z,32.88
2022-12-31T05:23:30.314Z,39.75
2022-12-31T05:24:31.167Z,35.88
2022-12-31T05:25:32.292Z,36.53
2022-12-31T05:26:33.175Z,38.40
2022-12-31T05:27:34.400Z,42.17
2022-12-31T05:28:35.319Z,32.25
2022-12-31T05:29:36.472Z,34.93
2022-12-31T05:30:37.413Z,45.85
2022-12-31T05:31:38.610Z,39.45
2022-12-31T05:32:39.635Z,44.97
2022-12-31T05:33:40.810Z,45.03
2022-12-31T05:34:41.813Z,44.92
2022-12-31T05:35:43.718Z,48.30
2022-12-31T05:36:44.586Z,39.60
2022-12-31T05:37:45.752Z,42.40
2022-12-31T05:38:46.621Z,44.25
2022-12-31T05:39:47.828Z,36.67
2022-12-31T05:40:48.688Z,44.05
2022-12-31T05:41:49.814Z,47.13
2022-12-31T05:42:50.662Z,38.33
2022-12-31T05:43:51.836Z,39.53
2022-12-31T05:44:52.806Z,41.40
2022-12-31T05:45:53.991Z,46.20
2022-12-31T05:46:55.964Z,39.85
2022-12-31T05:48:57.781Z,32.47
2022-12-31T05:49:59.007Z,45.77
2022-12-31T05:51:00.495Z,42.90
2022-12-31T05:52:01.643Z,41.17
2022-12-31T05:53:02.538Z,45.83
2022-12-31T05:54:03.970Z,35.27
2022-12-31T05:55:05.396Z,46.85
2022-12-31T05:56:06.631Z,40.60
2022-12-31T05:57:07.510Z,51.65
2022-12-31T05:58:08.628Z,40.05
2022-12-31T05:59:09.505Z,53.90
2022-12-31T06:00:11.375Z,41.63
2022-12-31T06:01:12.558Z,44.25
2022-12-31T06:02:13.738Z,42.35
2022-12-31T06:03:15.011Z,49.95
2022-12-31T06:04:16.031Z,45.53
2022-12-31T06:05:22.485Z,40.70
2022-12-31T06:06:27.317Z,44.75
2022-12-31T06:07:28.474Z,48.72
2022-12-31T06:08:29.591Z,45.20
2022-12-31T06:09:30.512Z,49.45
2022-12-31T06:10:31.639Z,39.67
2022-12-31T06:11:32.508Z,51.53
2022-12-31T06:12:33.639Z,39.93
2022-12-31T06:13:34.616Z,53.67
2022-12-31T06:14:37.621Z,43.63
2022-12-31T06:15:41.785Z,47.35
2022-12-31T06:16:43.095Z,55.80
2022-12-31T06:17:43.928Z,43.38
2022-12-31T06:18:46.648Z,52.42
2022-12-31T06:19:47.749Z,49.88
2022-12-31T06:20:48.877Z,47.70
2022-12-31T06:21:50.496Z,46.80
2022-12-31T06:22:51.639Z,46.55
2022-12-31T06:23:52.482Z,51.08
2022-12-31T06:24:53.871Z,46.15
2022-12-31T06:25:54.715Z,52.20
2022-12-31T06:26:55.827Z,51.28
2022-12-31T06:27:56.995Z,46.85
2022-12-31T06:28:57.872Z,56.13
2022-12-31T06:29:59.072Z,45.23
2022-12-31T06:31:00.362Z,52.25
2022-12-31T06:32:01.559Z,45.85
2022-12-31T06:33:02.422Z,47.08
2022-12-31T06:34:03.580Z,53.67
2022-12-31T06:35:05.141Z,42.65
2022-12-31T06:36:08.033Z,52.47
2022-12-31T06:37:09.556Z,42.88
2022-12-31T06:38:10.695Z,56.50
2022-12-31T06:39:11.540Z,40.30
2022-12-31T06:40:12.739Z,55.15
2022-12-31T06:41:15.446Z,43.78
2022-12-31T06:42:16.640Z,58.30
2022-12-31T06:43:17.607Z,49.75
2022-12-31T06:44:21.591Z,54.35
2022-12-31T06:45:22.497Z,43.33
2022-12-31T06:46:24.104Z,56.40
2022-12-31T06:47:25.343Z,47.45
2022-12-31T06:48:26.180Z,42.28
2022-12-31T06:49:27.531Z,57.05
2022-12-31T06:50:28.408Z,45.67
2022-12-31T06:51:29.693Z,52.25
2022-12-31T06:52:31.182Z,52.53
2022-12-31T06:53:32.323Z,51.13
2022-12-31T06:54:33.431Z,55.90
2022-12-31T06:55:34.935Z,53.88
2022-12-31T06:56:36.015Z,59.70
2022-12-31T06:57:37.443Z,56.58
2022-12-31T06:58:38.547Z,51.10
2022-12-31T06:59:40.075Z,46.28
2022-12-31T07:00:44.110Z,61.30
2022-12-31T07:01:49.336Z,46.85
2022-12-31T07:02:57.473Z,60.35
2022-12-31T07:04:02.942Z,56.95
2022-12-31T07:05:07.669Z,58.25
2022-12-31T07:06:09.579Z,54.33
2022-12-31T07:08:17.793Z,40.88
2022-12-31T07:09:24.726Z,65.38
2022-12-31T07:10:33.233Z,56.30
2022-12-31T07:11:38.492Z,62.40
2022-12-31T07:12:48.674Z,60.58
2022-12-31T07:13:56.479Z,63.75
2022-12-31T07:14:59.159Z,53.80
2022-12-31T07:16:06.456Z,58.15
2022-12-31T07:17:10.687Z,61.08
2022-12-31T07:18:17.266Z,57.15
2022-12-31T07:19:24.676Z,53.70
2022-12-31T07:20:25.786Z,62.83
2022-12-31T07:21:31.547Z,59.25
2022-12-31T07:22:33.085Z,59.17
2022-12-31T07:23:35.009Z,58.28
2022-12-31T07:24:36.478Z,61.25
2022-12-31T07:25:40.453Z,62.70
2022-12-31T07:26:56.212Z,50.45
2022-12-31T07:28:05.456Z,59.88
2022-12-31T07:29:08.680Z,62.55
2022-12-31T07:30:11.898Z,61.00
2022-12-31T07:31:17.076Z,64.20
2022-12-31T07:32:22.946Z,63.55
2022-12-31T07:33:35.720Z,64.75
2022-12-31T07:34:38.959Z,65.53
2022-12-31T07:35:43.109Z,62.05
2022-12-31T07:36:49.894Z,61.85
2022-12-31T07:37:55.296Z,66.47
2022-12-31T07:39:00.904Z,65.75
2022-12-31T07:40:08.361Z,61.97
2022-12-31T07:41:15.135Z,71.00
2022-12-31T07:42:18.274Z,76.22
2022-12-31T07:43:25.344Z,74.20
2022-12-31T07:44:32.056Z,79.68
2022-12-31T07:45:37.107Z,77.57
2022-12-31T07:46:42.652Z,73.82
2022-12-31T07:47:43.759Z,76.50
2022-12-31T07:48:45.238Z,76.40
2022-12-31T07:49:46.453Z,81.68
2022-12-31T07:50:47.847Z,74.88
2022-12-31T07:51:49.175Z,85.88
2022-12-31T07:52:50.580Z,81.00
2022-12-31T07:53:51.438Z,77.13
2022-12-31T07:54:53.281Z,80.80
2022-12-31T07:55:55.578Z,84.35
2022-12-31T07:56:57.289Z,80.80
2022-12-31T07:58:01.166Z,78.35
2022-12-31T07:59:05.650Z,75.75
2022-12-31T08:00:10.663Z,78.78
2022-12-31T08:01:12.643Z,73.22
2022-12-31T08:02:18.035Z,71.05
2022-12-31T08:03:27.310Z,68.50
2022-12-31T08:04:30.982Z,67.05
2022-12-31T08:05:34.461Z,66.43
2022-12-31T08:06:38.435Z,65.75
2022-12-31T08:07:42.903Z,64.10
2022-12-31T08:08:46.711Z,59.42
2022-12-31T08:09:51.869Z,64.45
2022-12-31T08:10:59.938Z,60.53
2022-12-31T08:12:01.805Z,64.43
2022-12-31T08:13:04.921Z,66.50
2022-12-31T08:14:08.332Z,62.47
2022-12-31T08:15:12.717Z,63.47
2022-12-31T08:16:14.074Z,59.10
2022-12-31T08:17:15.991Z,58.08
2022-12-31T08:18:17.343Z,53.50
2022-12-31T08:19:22.041Z,58.28
2022-12-31T08:20:23.237Z,52.67
2022-12-31T08:21:34.981Z,53.30
2022-12-31T08:22:45.759Z,50.65
2022-12-31T08:23:51.333Z,48.28
2022-12-31T08:24:58.221Z,45.95
2022-12-31T08:26:07.070Z,50.95
2022-12-31T08:27:12.036Z,48.55
2022-12-31T08:28:17.927Z,47.10
2022-12-31T08:29:25.059Z,48.10
2022-12-31T08:30:28.287Z,42.83
2022-12-31T08:31:35.563Z,41.85
2022-12-31T08:32:41.863Z,41.28
2022-12-31T08:33:47.952Z,39.60
2022-12-31T08:34:53.878Z,40.03
2022-12-31T08:36:01.991Z,36.65
2022-12-31T08:37:06.178Z,37.47
2022-12-31T08:38:22.268Z,37.13
2022-12-31T08:39:28.048Z,34.03
2022-12-31T08:40:33.043Z,32.03
2022-12-31T08:41:42.969Z,37.28
2022-12-31T08:42:49.779Z,36.30
2022-12-31T08:44:04.435Z,36.38
2022-12-31T08:45:11.768Z,36.13
2022-12-31T08:46:16.824Z,34.78
2022-12-31T08:47:25.947Z,35.15
2022-12-31T08:48:30.682Z,34.92
2022-12-31T08:49:32.832Z,31.88
2022-12-31T08:50:34.236Z,32.25
2022-12-31T08:51:35.638Z,30.45
2022-12-31T08:52:36.751Z,32.55
2022-12-31T08:53:38.231Z,31.38
2022-12-31T08:54:39.583Z,31.50
2022-12-31T08:55:41.781Z,31.45
2022-12-31T08:56:50.336Z,29.80
2022-12-31T08:57:58.398Z,28.92
2022-12-31T08:59:14.651Z,30.30
2022-12-31T09:00:16.698Z,29.73
2022-12-31T09:01:21.444Z,27.60
2022-12-31T09:02:32.277Z,27.20
2022-12-31T09:03:42.541Z,28.17
2022-12-31T09:04:51.187Z,26.90
2022-12-31T09:05:54.345Z,27.48
2022-12-31T09:06:58.101Z,28.42
2022-12-31T09:08:10.470Z,27.58
2022-12-31T09:09:13.732Z,27.92
2022-12-31T09:10:17.574Z,26.23
2022-12-31T09:11:23.498Z,27.50
2022-12-31T09:12:28.947Z,28.88
2022-12-31T09:13:37.481Z,25.17
2022-12-31T09:14:43.572Z,25.08
2022-12-31T09:15:48.390Z,26.65
2022-12-31T09:16:54.002Z,24.40
2022-12-31T09:17:55.541Z,25.40
2022-12-31T09:18:56.677Z,25.63
2022-12-31T09:19:57.862Z,23.75
2022-12-31T09:20:59.137Z,24.70
2022-12-31T09:22:00.565Z,26.58
2022-12-31T09:23:01.607Z,26.75
2022-12-31T09:24:09.014Z,23.92
2022-12-31T09:25:13.346Z,23.73
2022-12-31T09:26:20.173Z,25.33
2022-12-31T09:27:27.801Z,23.02
2022-12-31T09:28:36.175Z,22.90
2022-12-31T09:29:43.066Z,21.60
2022-12-31T09:30:49.379Z,22.63
2022-12-31T09:31:53.700Z,21.27
2022-12-31T09:33:01.348Z,22.67
2022-12-31T09:34:06.485Z,21.75
2022-12-31T09:35:11.895Z,22.98
2022-12-31T09:36:16.711Z,23.30
2022-12-31T09:37:20.599Z,22.77
2022-12-31T09:38:23.261Z,21.33
2022-12-31T09:39:28.128Z,20.75
2022-12-31T09:40:50.152Z,20.50
2022-12-31T09:42:02.642Z,21.50
2022-12-31T09:44:16.622Z,19.98
2022-12-31T09:45:35.411Z,19.90
2022-12-31T09:47:03.305Z,20.67
2022-12-31T09:48:19.315Z,20.25
2022-12-31T09:49:38.450Z,19.65
2022-12-31T09:50:48.702Z,18.83
2022-12-31T09:51:56.639Z,19.75
2022-12-31T09:53:11.736Z,19.60
2022-12-31T09:54:23.426Z,20.30
2022-12-31T09:55:30.844Z,20.40
2022-12-31T09:56:35.657Z,21.52
2022-12-31T09:57:39.152Z,20.23
2022-12-31T09:58:43.611Z,19.50
2022-12-31T09:59:48.123Z,20.25
2022-12-31T10:00:51.889Z,20.25
2022-12-31T10:01:55.361Z,19.25
2022-12-31T10:03:01.985Z,17.48
2022-12-31T10:04:23.336Z,19.55
2022-12-31T10:05:30.930Z,20.52
2022-12-31T10:06:35.471Z,18.38
2022-12-31T10:07:45.990Z,18.98
2022-12-31T10:09:01.503Z,17.92
2022-12-31T10:10:09.082Z,18.25
2022-12-31T10:11:14.051Z,18.05
2022-12-31T10:12:42.268Z,18.35
2022-12-31T10:13:48.342Z,19.13
2022-12-31T10:15:00.265Z,19.15
2022-12-31T10:16:05.628Z,17.73
2022-12-31T10:17:13.721Z,17.00
2022-12-31T10:18:23.023Z,17.48
2022-12-31T10:19:36.557Z,18.10
2022-12-31T10:20:46.846Z,18.05
2022-12-31T10:21:53.483Z,18.85
2022-12-31T10:23:13.106Z,20.77
2022-12-31T10:24:21.691Z,21.20
2022-12-31T10:25:39.840Z,19.55
2022-12-31T10:26:53.024Z,18.60
2022-12-31T10:27:59.560Z,18.80
2022-12-31T10:29:08.602Z,17.23
2022-12-31T10:30:13.498Z,17.60
2022-12-31T10:31:15.370Z,17.25
2022-12-31T10:33:25.189Z,18.75
2022-12-31T10:34:30.475Z,17.30
2022-12-31T10:35:36.280Z,19.67
2022-12-31T10:36:46.351Z,17.85
2022-12-31T10:37:52.774Z,16.98
2022-12-31T10:39:00.209Z,16.48
2022-12-31T10:40:10.994Z,17.80
2022-12-31T10:41:26.478Z,16.83
2022-12-31T10:42:51.386Z,15.75
2022-12-31T10:44:11.835Z,16.40
2022-12-31T10:45:33.933Z,16.02
2022-12-31T10:46:49.509Z,15.93
2022-12-31T10:48:10.151Z,15.63
2022-12-31T10:49:32.340Z,14.52
2022-12-31T10:50:48.602Z,15.27
2022-12-31T10:52:10.547Z,12.23
2022-12-31T10:53:29.643Z,14.60
2022-12-31T10:54:48.350Z,13.98
2022-12-31T10:55:56.092Z,13.02
2022-12-31T10:57:06.540Z,12.25
2022-12-31T10:58:22.560Z,13.30
2022-12-31T10:59:41.415Z,12.98
2022-12-31T11:00:45.706Z,13.02
2022-12-31T11:01:48.288Z,12.90
2022-12-31T11:03:06.760Z,12.73
2022-12-31T11:04:19.245Z,14.18
2022-12-31T11:06:39.023Z,13.95
2022-12-31T11:08:09.062Z,13.90
2022-12-31T11:09:27.477Z,14.43
2022-12-31T11:10:50.021Z,14.00
2022-12-31T11:11:56.452Z,13.90
2022-12-31T11:13:29.401Z,13.80
2022-12-31T11:14:45.781Z,15.70
2022-12-31T11:16:01.860Z,17.90
2022-12-31T11:17:11.262Z,16.05
2022-12-31T11:18:17.408Z,13.70
2022-12-31T11:19:20.913Z,13.23
2022-12-31T11:20:31.096Z,13.45
2022-12-31T11:21:41.841Z,12.93
2022-12-31T11:22:47.839Z,13.23
2022-12-31T11:23:54.998Z,13.07
2022-12-31T11:25:05.831Z,13.73
2022-12-31T11:26:12.384Z,14.63
2022-12-31T11:27:19.664Z,14.48
2022-12-31T11:28:25.704Z,13.75
2022-12-31T11:29:35.428Z,15.48
2022-12-31T11:30:41.460Z,14.65
2022-12-31T11:31:50.299Z,15.55
2022-12-31T11:33:00.559Z,13.98
2022-12-31T11:34:09.864Z,14.02
2022-12-31T11:35:28.735Z,13.43
2022-12-31T11:36:35.741Z,15.02
2022-12-31T11:37:41.647Z,14.00
2022-12-31T11:38:44.799Z,15.50
2022-12-31T11:39:49.089Z,15.75
2022-12-31T11:40:56.246Z,15.43
2022-12-31T11:41:59.816Z,15.98
2022-12-31T11:43:04.148Z,17.95
2022-12-31T11:44:15.699Z,17.27
2022-12-31T11:45:21.481Z,16.83
2022-12-31T11:46:43.357Z,18.88
2022-12-31T11:48:28.675Z,17.20
2022-12-31T11:49:30.213Z,17.30
2022-12-31T11:50:38.334Z,16.98
2022-12-31T11:51:50.690Z,17.85
2022-12-31T11:52:54.735Z,17.30
2022-12-31T11:54:20.222Z,17.73
2022-12-31T11:55:29.689Z,18.13
2022-12-31T11:56:32.412Z,18.55
2022-12-31T11:57:34.556Z,20.10
2022-12-31T11:58:35.708Z,18.95
2022-12-31T11:59:36.602Z,18.50
2022-12-31T12:00:38.476Z,17.90
2022-12-31T12:01:47.017Z,18.23
2022-12-31T12:02:49.557Z,17.42
2022-12-31T12:03:50.733Z,18.25
2022-12-31T12:04:52.237Z,16.90
2022-12-31T12:05:55.716Z,17.90
2022-12-31T12:06:57.095Z,17.65
2022-12-31T12:07:58.217Z,17.73
2022-12-31T12:09:01.485Z,18.52
2022-12-31T12:10:06.859Z,17.23
2022-12-31T12:11:13.667Z,17.70
2022-12-31T12:12:15.710Z,18.20
2022-12-31T12:13:21.363Z,18.08
2022-12-31T12:14:28.949Z,18.27
2022-12-31T12:15:31.920Z,18.70
2022-12-31T12:16:33.182Z,18.77
2022-12-31T12:17:34.689Z,18.25
2022-12-31T12:18:40.513Z,19.20
2022-12-31T12:19:42.368Z,19.25
2022-12-31T12:20:44.136Z,17.70
2022-12-31T12:21:46.617Z,18.70
2022-12-31T12:22:49.570Z,17.23
2022-12-31T12:23:55.010Z,17.88
2022-12-31T12:24:56.815Z,19.02
2022-12-31T12:25:58.002Z,17.75
2022-12-31T12:26:59.224Z,18.85
2022-12-31T12:28:10.394Z,18.50
2022-12-31T12:29:12.259Z,18.15
2022-12-31T12:30:18.711Z,19.25
2022-12-31T12:31:21.677Z,19.27
2022-12-31T12:32:24.445Z,18.58
2022-12-31T12:33:26.122Z,18.70
2022-12-31T12:34:27.970Z,18.13
2022-12-31T12:35:30.228Z,18.80
2022-12-31T12:36:31.402Z,18.98
2022-12-31T12:37:33.801Z,19.70
2022-12-31T12:38:35.187Z,19.00
2022-12-31T12:39:36.329Z,20.60
2022-12-31T12:40:37.990Z,19.27
2022-12-31T12:41:39.120Z,18.83
2022-12-31T12:42:45.596Z,20.27
2022-12-31T12:43:46.895Z,19.83
2022-12-31T12:44:47.729Z,20.67
2022-12-31T12:45:52.440Z,20.27
2022-12-31T12:46:54.040Z,21.42
2022-12-31T12:47:56.297Z,21.38
2022-12-31T12:48:57.698Z,20.90
2022-12-31T12:49:58.926Z,21.92
2022-12-31T12:51:00.619Z,19.88
2022-12-31T12:52:09.405Z,22.10
2022-12-31T12:53:25.427Z,20.08
2022-12-31T12:54:35.240Z,20.88
2022-12-31T12:55:40.584Z,21.38
2022-12-31T12:56:44.631Z,22.13
2022-12-31T12:57:48.612Z,22.02
2022-12-31T12:58:58.039Z,21.83
2022-12-31T13:00:03.662Z,23.25
2022-12-31T13:01:10.354Z,21.88
2022-12-31T13:02:22.599Z,22.58
2022-12-31T13:03:34.608Z,22.40
2022-12-31T13:04:45.034Z,23.17
2022-12-31T13:05:51.723Z,23.58
2022-12-31T13:06:58.678Z,22.85
2022-12-31T13:08:05.207Z,23.42
2022-12-31T13:09:17.236Z,23.58
2022-12-31T13:10:32.827Z,22.50
2022-12-31T13:11:40.085Z,23.30
2022-12-31T13:13:22.289Z,20.88
2022-12-31T13:14:13.963Z,22.42
2022-12-31T13:15:18.146Z,23.88
2022-12-31T13:16:22.277Z,23.65
2022-12-31T13:17:29.698Z,22.75
2022-12-31T13:18:38.691Z,23.70
2022-12-31T13:19:41.928Z,22.98
2022-12-31T13:20:45.651Z,22.30
2022-12-31T13:21:50.523Z,24.38
2022-12-31T13:22:55.406Z,23.33
2022-12-31T13:23:58.098Z,23.60
2022-12-31T13:25:00.429Z,23.55
2022-12-31T13:26:06.674Z,23.50
2022-12-31T13:27:11.414Z,24.50
2022-12-31T13:28:15.154Z,24.33
2022-12-31T13:29:18.150Z,25.75
2022-12-31T13:30:20.792Z,24.85
2022-12-31T13:31:24.320Z,25.90
2022-12-31T13:32:32.261Z,23.00
2022-12-31T13:33:36.104Z,25.67
2022-12-31T13:34:39.584Z,24.83
2022-12-31T13:35:43.147Z,23.45
2022-12-31T13:36:46.132Z,23.63
2022-12-31T13:37:48.139Z,24.70
2022-12-31T13:39:57.314Z,23.77
2022-12-31T13:41:00.872Z,24.42
2022-12-31T13:42:04.610Z,25.00
2022-12-31T13:43:07.576Z,23.63
2022-12-31T13:44:11.807Z,24.80
2022-12-31T13:45:15.977Z,23.63
2022-12-31T13:46:18.816Z,26.35
2022-12-31T13:47:21.491Z,25.83
2022-12-31T13:48:25.030Z,24.75
2022-12-31T13:49:30.704Z,22.83
2022-12-31T13:50:33.387Z,25.25
2022-12-31T13:51:39.797Z,26.55
2022-12-31T13:52:44.183Z,25.65
2022-12-31T13:53:48.778Z,27.50
2022-12-31T13:54:52.998Z,25.95
2022-12-31T13:55:57.232Z,24.70
2022-12-31T13:57:00.819Z,24.40
2022-12-31T13:58:05.395Z,26.10
2022-12-31T13:59:10.343Z,25.27
2022-12-31T14:00:18.463Z,25.23
2022-12-31T15:26:23.845Z,32.81
2022-12-31T15:27:30.911Z,33.13
2022-12-31T15:28:33.646Z,32.88
2022-12-31T15:29:36.216Z,32.88
2022-12-31T15:30:39.086Z,31.38